< < Back
Terminal Aerodrome Forecast


Current Version              Previous Versions:   1  2  3  4  5  6  7  8  9  

Terminal Aerodrome Forecast

291
FTUS42 KJAX 220521
TAFGNV
TAF
KGNV 220521Z 2206/2306 28005KT P6SM SKC
     FM221400 36010KT P6SM SCT250
     FM230000 03006KT P6SM SCT250=

Latest METAR

759
SAUS70 KWBC 220800 RRL
MTRGNV
METAR KGNV 220753Z AUTO 32006KT 10SM CLR 22/19 A3001 RMK AO2 SLP160
T02220194


USA.gov is the U.S. government's official web portal to all federal, state and local government web resources and services.